createdAt,value
2023-05-19T00:02:04.628Z,9.78
2023-05-19T00:04:36.170Z,9.73
2023-05-19T00:07:07.650Z,9.72
2023-05-19T00:09:39.164Z,9.70
2023-05-19T00:12:10.851Z,9.67
2023-05-19T00:14:42.358Z,9.63
2023-05-19T00:17:14.171Z,9.58
2023-05-19T00:19:45.694Z,9.56
2023-05-19T00:22:17.566Z,9.52
2023-05-19T00:24:49.072Z,9.49
2023-05-19T00:27:20.888Z,9.45
2023-05-19T00:29:52.410Z,9.40
2023-05-19T00:32:24.124Z,9.42
2023-05-19T00:34:55.635Z,9.37
2023-05-19T00:37:27.452Z,9.33
2023-05-19T00:39:59.349Z,9.29
2023-05-19T00:42:30.878Z,9.25
2023-05-19T00:45:02.382Z,9.25
2023-05-19T00:47:33.991Z,9.24
2023-05-19T00:50:05.951Z,9.17
2023-05-19T00:52:37.444Z,9.21
2023-05-19T00:55:09.253Z,9.15
2023-05-19T00:57:40.752Z,9.14
2023-05-19T01:00:12.562Z,9.11
2023-05-19T01:02:44.128Z,9.06
2023-05-19T01:05:16.036Z,9.05
2023-05-19T01:07:47.792Z,9.03
2023-05-19T01:10:19.607Z,8.97
2023-05-19T01:12:51.383Z,8.93
2023-05-19T01:15:22.865Z,8.88
2023-05-19T01:17:54.818Z,8.88
2023-05-19T01:20:26.319Z,8.87
2023-05-19T01:22:58.144Z,8.86
2023-05-19T01:25:29.613Z,8.86
2023-05-19T01:28:01.441Z,8.83
2023-05-19T01:30:33.167Z,8.82
2023-05-19T01:33:05.164Z,8.81
2023-05-19T01:35:36.660Z,8.84
2023-05-19T01:38:08.608Z,8.84
2023-05-19T01:40:40.108Z,8.81
2023-05-19T01:43:12.031Z,8.84
2023-05-19T01:45:43.772Z,8.81
2023-05-19T01:48:15.337Z,8.75
2023-05-19T01:50:47.233Z,8.71
2023-05-19T01:53:18.701Z,8.68
2023-05-19T01:55:50.215Z,8.68
2023-05-19T01:58:21.750Z,8.64
2023-05-19T02:00:53.587Z,8.58
2023-05-19T02:03:25.174Z,8.59
2023-05-19T02:05:57.005Z,8.57
2023-05-19T02:08:28.709Z,8.55
2023-05-19T02:11:00.569Z,8.51
2023-05-19T02:13:32.423Z,8.47
2023-05-19T02:16:03.925Z,8.46
2023-05-19T02:18:35.462Z,8.46
2023-05-19T02:21:06.937Z,8.44
2023-05-19T02:23:38.426Z,8.42
2023-05-19T02:26:09.918Z,8.40
2023-05-19T02:28:41.788Z,8.40
2023-05-19T02:31:13.292Z,8.38
2023-05-19T02:33:45.190Z,8.36
2023-05-19T02:36:16.689Z,8.35
2023-05-19T02:38:48.465Z,8.32
2023-05-19T02:41:20.317Z,8.35
2023-05-19T02:43:51.968Z,8.30
2023-05-19T02:46:23.641Z,8.33
2023-05-19T02:48:55.136Z,8.35
2023-05-19T02:51:26.988Z,8.32
2023-05-19T02:53:58.503Z,8.36
2023-05-19T02:56:30.303Z,8.38
2023-05-19T02:59:01.790Z,8.42
2023-05-19T03:01:33.404Z,8.43
2023-05-19T03:04:04.979Z,8.49
2023-05-19T03:06:36.513Z,8.54
2023-05-19T03:09:08.028Z,8.62
2023-05-19T03:11:39.550Z,8.57
2023-05-19T03:14:11.394Z,8.59
2023-05-19T03:16:43.467Z,8.56
2023-05-19T03:19:15.166Z,8.61
2023-05-19T03:21:46.683Z,8.61
2023-05-19T03:24:18.521Z,8.63
2023-05-19T03:26:50.034Z,8.69
2023-05-19T03:29:21.882Z,8.70
2023-05-19T03:31:53.369Z,8.75
2023-05-19T03:34:25.128Z,8.76
2023-05-19T03:36:56.609Z,8.84
2023-05-19T03:39:28.443Z,8.89
2023-05-19T03:44:50.297Z,9.03
2023-05-19T03:47:22.152Z,9.10
2023-05-19T03:49:53.629Z,9.22
2023-05-19T03:52:25.551Z,9.28
2023-05-19T03:54:57.044Z,9.44
2023-05-19T03:57:28.922Z,9.51
2023-05-19T04:00:00.419Z,9.58
2023-05-19T04:02:32.389Z,9.57
2023-05-19T04:05:03.891Z,9.78
2023-05-19T04:07:35.418Z,9.90
2023-05-19T04:10:06.898Z,10.03
2023-05-19T04:12:38.399Z,10.10
2023-05-19T04:15:10.222Z,10.09
2023-05-19T04:17:41.733Z,10.12
2023-05-19T04:20:13.530Z,10.21
2023-05-19T04:22:45.018Z,10.27
2023-05-19T04:25:16.745Z,10.33
2023-05-19T04:27:48.254Z,10.30
2023-05-19T04:30:20.092Z,10.38
2023-05-19T04:32:51.664Z,10.49
2023-05-19T04:35:23.618Z,10.45
2023-05-19T04:37:55.112Z,10.57
2023-05-19T04:40:26.968Z,10.56
2023-05-19T04:42:58.790Z,10.64
2023-05-19T04:45:30.611Z,10.74
2023-05-19T04:48:02.372Z,10.72
2023-05-19T04:50:34.152Z,10.83
2023-05-19T04:53:06.193Z,10.91
2023-05-19T04:55:37.684Z,10.95
2023-05-19T04:58:09.592Z,11.09
2023-05-19T05:00:41.087Z,11.08
2023-05-19T05:03:13.138Z,11.19
2023-05-19T05:05:44.732Z,11.24
2023-05-19T05:08:17.512Z,11.20
2023-05-19T05:10:49.138Z,11.10
2023-05-19T05:13:20.950Z,11.30
2023-05-19T05:15:52.546Z,11.35
2023-05-19T05:18:24.080Z,11.32
2023-05-19T05:20:56.104Z,11.27
2023-05-19T05:23:27.596Z,11.67
2023-05-19T05:25:59.124Z,11.55
2023-05-19T05:28:30.617Z,11.81
2023-05-19T05:31:02.444Z,11.83
2023-05-19T05:33:33.988Z,11.96
2023-05-19T05:36:05.831Z,12.24
2023-05-19T05:38:37.388Z,12.44
2023-05-19T05:41:09.225Z,12.55
2023-05-19T05:43:40.806Z,12.77
2023-05-19T05:46:12.529Z,12.64
2023-05-19T05:48:44.379Z,12.73
2023-05-19T05:51:15.881Z,12.71
2023-05-19T05:53:47.387Z,12.79
2023-05-19T05:56:18.881Z,13.22
2023-05-19T05:58:50.804Z,13.92
2023-05-19T06:01:22.289Z,14.19
2023-05-19T06:03:54.093Z,14.65
2023-05-19T06:06:25.592Z,14.88
2023-05-19T06:08:57.119Z,14.82
2023-05-19T06:11:28.606Z,14.68
2023-05-19T06:14:00.454Z,14.66
2023-05-19T06:16:32.242Z,14.67
2023-05-19T06:19:04.474Z,14.84
2023-05-19T06:21:36.040Z,14.81
2023-05-19T06:24:07.552Z,14.98
2023-05-19T06:26:39.054Z,15.14
2023-05-19T06:29:10.530Z,15.00
2023-05-19T06:31:42.385Z,15.09
2023-05-19T06:34:13.900Z,15.13
2023-05-19T06:36:45.757Z,15.38
2023-05-19T06:39:17.229Z,15.59
2023-05-19T06:41:49.144Z,15.66
2023-05-19T06:44:21.220Z,15.81
2023-05-19T06:46:52.900Z,16.11
2023-05-19T06:49:24.425Z,16.02
2023-05-19T06:51:55.941Z,15.99
2023-05-19T06:54:27.764Z,16.33
2023-05-19T06:56:59.266Z,16.48
2023-05-19T06:59:31.040Z,16.41
2023-05-19T07:02:02.622Z,16.69
2023-05-19T07:04:34.150Z,16.65
2023-05-19T07:07:05.646Z,17.01
2023-05-19T07:09:37.178Z,17.21
2023-05-19T07:12:08.679Z,16.82
2023-05-19T07:14:40.196Z,17.46
2023-05-19T07:17:12.042Z,17.81
2023-05-19T07:19:43.536Z,18.05
2023-05-19T07:22:15.042Z,17.68
2023-05-19T07:24:46.538Z,18.01
2023-05-19T07:27:18.377Z,17.81
2023-05-19T07:29:49.900Z,17.93
2023-05-19T07:32:21.862Z,18.48
2023-05-19T07:34:53.454Z,19.03
2023-05-19T07:37:25.384Z,19.17
2023-05-19T07:39:56.863Z,19.53
2023-05-19T07:42:28.347Z,19.89
2023-05-19T07:45:00.016Z,19.57
2023-05-19T07:47:31.772Z,20.34
2023-05-19T07:50:03.553Z,20.69
2023-05-19T07:52:35.065Z,20.88
2023-05-19T07:55:06.778Z,20.58
2023-05-19T07:57:38.282Z,20.43
2023-05-19T08:00:10.138Z,20.46
2023-05-19T08:02:41.717Z,20.50
2023-05-19T08:05:13.559Z,20.27
2023-05-19T08:07:45.055Z,20.48
2023-05-19T08:10:16.910Z,20.73
2023-05-19T08:12:48.457Z,20.43
2023-05-19T08:15:20.139Z,20.04
2023-05-19T08:17:51.906Z,19.74
2023-05-19T08:20:23.519Z,20.37
2023-05-19T08:22:55.489Z,20.74
2023-05-19T08:25:26.986Z,20.79
2023-05-19T08:27:58.868Z,21.59
2023-05-19T08:30:30.441Z,21.99
2023-05-19T08:33:02.507Z,21.61
2023-05-19T08:35:34.068Z,21.40
2023-05-19T08:38:06.033Z,22.30
2023-05-19T08:40:37.620Z,22.60
2023-05-19T08:43:09.453Z,23.42
2023-05-19T08:45:41.046Z,23.14
2023-05-19T08:48:12.675Z,23.01
2023-05-19T08:50:44.544Z,24.22
2023-05-19T08:53:31.807Z,23.70
2023-05-19T08:56:04.808Z,22.30
2023-05-19T08:58:36.296Z,23.37
2023-05-19T09:01:08.235Z,23.06
2023-05-19T09:03:39.865Z,22.62
2023-05-19T09:06:11.760Z,23.28
2023-05-19T09:08:43.567Z,23.10
2023-05-19T09:11:15.388Z,23.07
2023-05-19T09:13:47.335Z,22.90
2023-05-19T09:16:18.876Z,23.43
2023-05-19T09:18:50.990Z,22.78
2023-05-19T09:21:22.495Z,23.12
2023-05-19T09:23:54.340Z,22.50
2023-05-19T09:26:25.837Z,21.11
2023-05-19T09:28:57.698Z,21.10
2023-05-19T09:31:29.261Z,20.96
2023-05-19T09:34:01.150Z,20.62
2023-05-19T09:36:32.628Z,20.81
2023-05-19T09:39:04.691Z,21.15
2023-05-19T09:41:36.262Z,20.96
2023-05-19T09:44:07.761Z,21.47
2023-05-19T09:46:39.302Z,22.01
2023-05-19T09:49:10.850Z,22.56
2023-05-19T09:51:42.670Z,21.86
2023-05-19T09:54:14.164Z,22.11
2023-05-19T09:56:45.990Z,22.27
2023-05-19T09:59:17.529Z,22.32
2023-05-19T10:01:49.343Z,22.64
2023-05-19T10:04:20.847Z,22.64
2023-05-19T10:06:52.671Z,22.87
2023-05-19T10:09:24.538Z,23.00
2023-05-19T10:11:56.378Z,23.48
2023-05-19T10:14:28.208Z,22.63
2023-05-19T10:16:59.817Z,22.53
2023-05-19T10:19:31.717Z,22.44
2023-05-19T10:22:03.262Z,22.06
2023-05-19T10:24:34.786Z,22.86
2023-05-19T10:27:06.310Z,22.46
2023-05-19T10:29:37.846Z,22.68
2023-05-19T10:32:09.429Z,22.22
2023-05-19T10:34:41.080Z,22.11
2023-05-19T10:37:12.776Z,22.45
2023-05-19T10:39:44.513Z,21.97
2023-05-19T10:42:16.283Z,22.15
2023-05-19T10:44:47.774Z,21.99
2023-05-19T10:47:19.667Z,22.25
2023-05-19T10:49:51.309Z,21.80
2023-05-19T10:52:23.384Z,22.11
2023-05-19T10:54:55.096Z,22.30
2023-05-19T10:57:27.053Z,23.07
2023-05-19T10:59:58.549Z,23.55
2023-05-19T11:02:30.283Z,23.24
2023-05-19T11:05:01.806Z,23.67
2023-05-19T11:07:33.335Z,23.04
2023-05-19T11:10:04.889Z,22.42
2023-05-19T11:12:36.380Z,23.00
2023-05-19T11:15:08.167Z,22.58
2023-05-19T11:17:39.709Z,22.48
2023-05-19T11:20:11.537Z,22.60
2023-05-19T11:22:43.028Z,22.58
2023-05-19T11:25:14.890Z,22.71
2023-05-19T11:27:46.372Z,22.65
2023-05-19T11:30:18.370Z,22.64
2023-05-19T11:32:49.924Z,22.39
2023-05-19T11:35:21.775Z,23.28
2023-05-19T11:37:53.507Z,22.70
2023-05-19T11:40:25.024Z,22.69
2023-05-19T11:42:56.813Z,22.30
2023-05-19T11:45:28.365Z,22.43
2023-05-19T11:48:02.957Z,22.59
2023-05-19T11:50:34.915Z,22.75
2023-05-19T11:53:06.746Z,22.89
2023-05-19T11:55:38.272Z,22.66
2023-05-19T11:58:10.160Z,21.85
2023-05-19T12:00:41.693Z,22.21
2023-05-19T12:03:13.428Z,22.41
2023-05-19T12:05:45.555Z,22.70
2023-05-19T12:08:17.464Z,23.24
2023-05-19T12:10:49.429Z,24.16
2023-05-19T12:13:20.945Z,24.29
2023-05-19T12:15:52.564Z,23.85
2023-05-19T12:18:24.169Z,23.35
2023-05-19T12:20:56.144Z,22.19
2023-05-19T12:23:27.660Z,22.01
2023-05-19T12:25:59.514Z,22.09
2023-05-19T12:28:31.052Z,21.87
2023-05-19T12:31:02.553Z,21.73
2023-05-19T12:33:35.650Z,21.31
2023-05-19T12:36:07.731Z,21.51
2023-05-19T12:38:39.228Z,21.49
2023-05-19T12:41:10.712Z,21.60
2023-05-19T12:43:42.601Z,22.17
2023-05-19T12:46:14.166Z,24.14
2023-05-19T12:48:45.857Z,25.03
2023-05-19T12:51:17.382Z,25.88
2023-05-19T12:53:49.634Z,24.76
2023-05-19T12:56:21.125Z,23.68
2023-05-19T12:58:53.022Z,23.06
2023-05-19T13:01:24.710Z,22.37
2023-05-19T13:03:56.723Z,22.39
2023-05-19T13:06:28.361Z,22.34
2023-05-19T13:09:00.161Z,22.05
2023-05-19T13:11:32.137Z,22.14
2023-05-19T13:14:03.697Z,22.76
2023-05-19T13:16:35.296Z,23.29
2023-05-19T13:19:06.838Z,24.91
2023-05-19T13:21:38.357Z,24.43
2023-05-19T13:24:09.833Z,23.37
2023-05-19T13:26:41.333Z,22.74
2023-05-19T13:29:12.803Z,22.11
2023-05-19T13:31:44.645Z,21.59
2023-05-19T13:34:16.158Z,21.65
2023-05-19T13:36:48.058Z,22.03
2023-05-19T13:39:20.069Z,21.35
2023-05-19T13:41:51.653Z,21.87
2023-05-19T13:44:23.175Z,22.46
2023-05-19T13:46:54.755Z,22.88
2023-05-19T13:49:26.521Z,22.36
2023-05-19T13:51:58.003Z,23.07
2023-05-19T13:54:29.871Z,23.16
2023-05-19T13:57:01.367Z,23.88
2023-05-19T13:59:32.897Z,23.79
2023-05-19T14:02:04.469Z,23.75
2023-05-19T14:04:36.036Z,23.55
2023-05-19T14:07:07.554Z,23.72
2023-05-19T14:09:39.045Z,23.58
2023-05-19T14:12:10.918Z,22.87
2023-05-19T14:14:42.421Z,23.49
2023-05-19T14:17:13.925Z,24.25
2023-05-19T14:19:45.421Z,23.66
2023-05-19T14:22:16.924Z,24.18
2023-05-19T14:24:48.430Z,23.87
2023-05-19T14:27:19.920Z,23.99
2023-05-19T14:29:51.424Z,24.01
2023-05-19T14:32:23.539Z,24.05
2023-05-19T14:34:55.076Z,25.02
2023-05-19T14:37:26.638Z,25.66
2023-05-19T14:39:58.430Z,26.21
2023-05-19T14:42:30.180Z,25.22
2023-05-19T14:45:01.718Z,23.75
2023-05-19T14:47:33.211Z,23.57
2023-05-19T14:50:04.774Z,22.67
2023-05-19T14:52:36.287Z,23.79
2023-05-19T14:55:08.272Z,24.04
2023-05-19T14:57:39.759Z,24.72
2023-05-19T15:00:11.618Z,25.35
2023-05-19T15:02:43.142Z,24.99
2023-05-19T15:05:14.947Z,24.88
2023-05-19T15:07:46.464Z,23.95
2023-05-19T15:10:18.236Z,23.39
2023-05-19T15:12:49.733Z,23.40
2023-05-19T15:15:21.197Z,23.72
2023-05-19T15:17:52.886Z,23.86
2023-05-19T15:20:24.379Z,22.90
2023-05-19T15:22:56.155Z,22.57
2023-05-19T15:25:27.644Z,23.10
2023-05-19T15:27:59.462Z,22.87
2023-05-19T15:30:30.957Z,23.53
2023-05-19T15:33:02.681Z,22.61
2023-05-19T15:35:34.186Z,21.33
2023-05-19T15:38:05.692Z,20.99
2023-05-19T15:40:37.187Z,20.86
2023-05-19T15:43:08.725Z,20.76
2023-05-19T15:45:40.249Z,20.37
2023-05-19T15:48:11.802Z,20.40
2023-05-19T15:50:43.593Z,20.10
2023-05-19T15:53:15.185Z,20.12
2023-05-19T15:55:47.085Z,20.17
2023-05-19T15:58:18.578Z,20.47
2023-05-19T16:00:50.433Z,20.17
2023-05-19T16:03:21.991Z,21.00
2023-05-19T16:05:53.568Z,20.71
2023-05-19T16:08:25.258Z,20.75
2023-05-19T16:10:57.241Z,20.75
2023-05-19T16:13:29.066Z,20.89
2023-05-19T16:16:00.601Z,20.73
2023-05-19T16:18:32.424Z,20.96
2023-05-19T16:21:03.909Z,20.92
2023-05-19T16:23:35.401Z,20.88
2023-05-19T16:26:06.908Z,20.59
2023-05-19T16:28:38.438Z,20.31
2023-05-19T16:31:09.937Z,20.09
2023-05-19T16:33:41.427Z,19.88
2023-05-19T16:36:13.256Z,19.35
2023-05-19T16:38:44.922Z,19.23
2023-05-19T16:41:16.724Z,19.29
2023-05-19T16:43:48.209Z,19.34
2023-05-19T16:46:20.122Z,19.51
2023-05-19T16:48:51.749Z,19.34
2023-05-19T16:51:23.796Z,19.42
2023-05-19T16:53:55.361Z,19.42
2023-05-19T16:56:26.906Z,19.39
2023-05-19T16:58:58.441Z,19.03
2023-05-19T17:01:30.289Z,19.01
2023-05-19T17:04:02.348Z,19.05
2023-05-19T17:06:33.898Z,18.94
2023-05-19T17:09:05.409Z,18.71
2023-05-19T17:11:36.930Z,18.75
2023-05-19T17:14:08.667Z,18.64
2023-05-19T17:16:40.196Z,18.58
2023-05-19T17:19:11.789Z,18.26
2023-05-19T17:21:43.315Z,18.21
2023-05-19T17:24:15.182Z,18.12
2023-05-19T17:26:46.698Z,18.20
2023-05-19T17:29:18.616Z,18.21
2023-05-19T17:31:50.155Z,18.17
2023-05-19T17:34:21.700Z,18.10
2023-05-19T17:36:53.206Z,18.34
2023-05-19T17:39:25.026Z,18.32
2023-05-19T17:41:56.981Z,18.35
2023-05-19T17:44:28.649Z,18.41
2023-05-19T17:47:00.419Z,18.50
2023-05-19T17:49:31.896Z,18.23
2023-05-19T17:54:55.613Z,17.94
2023-05-19T17:57:27.448Z,17.79
2023-05-19T17:59:59.087Z,17.80
2023-05-19T18:02:31.065Z,17.64
2023-05-19T18:05:02.634Z,17.46
2023-05-19T18:07:34.158Z,17.31
2023-05-19T18:10:05.662Z,17.26
2023-05-19T18:12:37.166Z,17.11
2023-05-19T18:15:08.675Z,17.15
2023-05-19T18:17:40.207Z,17.03
2023-05-19T18:20:11.736Z,17.19
2023-05-19T18:22:43.225Z,17.13
2023-05-19T18:25:14.997Z,16.96
2023-05-19T18:27:46.510Z,16.99
2023-05-19T18:30:18.325Z,16.82
2023-05-19T18:32:49.858Z,16.85
2023-05-19T18:35:21.729Z,16.69
2023-05-19T18:37:53.235Z,16.67
2023-05-19T18:40:24.781Z,16.64
2023-05-19T18:42:56.590Z,16.48
2023-05-19T18:45:28.443Z,16.48
2023-05-19T18:47:59.983Z,16.45
2023-05-19T18:50:31.699Z,16.19
2023-05-19T18:53:03.390Z,16.17
2023-05-19T18:55:37.060Z,16.10
2023-05-19T18:58:10.167Z,16.07
2023-05-19T19:00:41.670Z,15.91
2023-05-19T19:03:13.532Z,15.90
2023-05-19T19:05:45.042Z,15.80
2023-05-19T19:08:16.743Z,15.75
2023-05-19T19:10:48.458Z,15.70
2023-05-19T19:13:20.283Z,15.59
2023-05-19T19:15:51.797Z,15.55
2023-05-19T19:18:23.302Z,15.53
2023-05-19T19:20:55.117Z,15.47
2023-05-19T19:23:26.599Z,15.38
2023-05-19T19:25:58.129Z,15.30
2023-05-19T19:28:29.612Z,15.29
2023-05-19T19:31:01.162Z,15.26
2023-05-19T19:33:32.654Z,15.22
2023-05-19T19:36:04.463Z,15.15
2023-05-19T19:38:35.972Z,15.15
2023-05-19T19:41:07.747Z,15.11
2023-05-19T19:43:39.257Z,15.08
2023-05-19T19:46:11.132Z,13.98
2023-05-19T19:48:42.960Z,14.93
2023-05-19T19:51:14.567Z,14.91
2023-05-19T19:53:46.409Z,14.93
2023-05-19T19:56:17.905Z,14.87
2023-05-19T19:58:49.419Z,14.88
2023-05-19T20:01:20.984Z,14.82
2023-05-19T20:03:52.927Z,14.85
2023-05-19T20:06:24.555Z,14.85
2023-05-19T20:08:56.079Z,13.96
2023-05-19T20:11:27.773Z,14.77
2023-05-19T20:13:59.342Z,14.75
2023-05-19T20:16:31.306Z,14.73
2023-05-19T20:19:02.864Z,14.64
2023-05-19T20:21:34.477Z,14.60
2023-05-19T20:24:05.951Z,14.55
2023-05-19T20:26:37.503Z,14.52
2023-05-19T20:29:09.067Z,14.57
2023-05-19T20:31:40.584Z,14.50
2023-05-19T20:34:12.181Z,14.49
2023-05-19T20:36:43.961Z,14.49
2023-05-19T20:39:15.446Z,14.45
2023-05-19T20:41:46.978Z,14.44
2023-05-19T20:44:18.462Z,14.40
2023-05-19T20:46:50.240Z,14.36
2023-05-19T20:49:21.744Z,14.33
2023-05-19T20:51:53.278Z,14.30
2023-05-19T20:54:24.798Z,14.24
2023-05-19T20:56:56.284Z,14.26
2023-05-19T20:59:28.119Z,14.19
2023-05-19T21:01:59.684Z,14.20
2023-05-19T21:04:31.420Z,14.19
2023-05-19T21:07:03.003Z,14.13
2023-05-19T21:09:34.533Z,14.13
2023-05-19T21:12:06.028Z,14.09
2023-05-19T21:14:37.527Z,14.07
2023-05-19T21:17:09.210Z,13.97
2023-05-19T21:19:40.782Z,13.89
2023-05-19T21:22:12.607Z,13.89
2023-05-19T21:24:44.138Z,13.79
2023-05-19T21:27:15.866Z,13.74
2023-05-19T21:29:47.347Z,13.71
2023-05-19T21:32:19.171Z,13.68
2023-05-19T21:34:50.645Z,13.58
2023-05-19T21:37:22.169Z,13.54
2023-05-19T21:39:53.681Z,13.49
2023-05-19T21:42:25.779Z,13.42
2023-05-19T21:44:57.296Z,13.41
2023-05-19T21:47:29.085Z,13.34
2023-05-19T21:50:00.622Z,13.35
2023-05-19T21:52:32.578Z,13.31
2023-05-19T21:55:04.486Z,13.23
2023-05-19T21:57:35.989Z,13.23
2023-05-19T22:00:07.801Z,13.16
2023-05-19T22:02:39.420Z,13.13
2023-05-19T22:05:11.304Z,13.07
2023-05-19T22:07:42.795Z,13.06
2023-05-19T22:10:14.640Z,13.01
2023-05-19T22:12:46.184Z,12.95
2023-05-19T22:15:18.130Z,12.87
2023-05-19T22:17:49.648Z,12.89
2023-05-19T22:20:21.537Z,12.85
2023-05-19T22:22:53.024Z,12.82
2023-05-19T22:25:24.787Z,12.82
2023-05-19T22:27:56.600Z,12.77
2023-05-19T22:30:28.109Z,12.70
2023-05-19T22:32:59.939Z,12.66
2023-05-19T22:35:31.462Z,12.58
2023-05-19T22:38:02.961Z,12.54
2023-05-19T22:40:34.720Z,12.48
2023-05-19T22:43:06.420Z,12.43
2023-05-19T22:45:38.101Z,12.36
2023-05-19T22:48:09.900Z,12.35
2023-05-19T22:50:41.411Z,12.31
2023-05-19T22:53:13.305Z,12.26
2023-05-19T22:55:44.799Z,12.14
2023-05-19T22:58:16.537Z,12.13
2023-05-19T23:00:48.357Z,12.09
2023-05-19T23:03:20.255Z,12.07
2023-05-19T23:05:51.747Z,12.06
2023-05-19T23:08:23.221Z,12.04
2023-05-19T23:10:55.140Z,12.00
2023-05-19T23:13:26.622Z,12.02
2023-05-19T23:15:58.495Z,12.00
2023-05-19T23:18:29.995Z,11.97
2023-05-19T23:21:01.839Z,11.98
2023-05-19T23:23:33.313Z,11.92
2023-05-19T23:26:05.133Z,11.93
2023-05-19T23:28:36.603Z,11.85
2023-05-19T23:31:08.383Z,11.83
2023-05-19T23:33:39.905Z,11.79
2023-05-19T23:36:11.943Z,11.75
2023-05-19T23:38:43.884Z,11.72
2023-05-19T23:41:15.358Z,11.72
2023-05-19T23:43:47.064Z,11.67
2023-05-19T23:46:18.573Z,11.64
2023-05-19T23:48:50.466Z,11.65
2023-05-19T23:51:21.946Z,11.65
2023-05-19T23:53:53.791Z,11.58
2023-05-19T23:56:25.287Z,11.57
2023-05-19T23:58:56.868Z,11.48
